createdAt,value
2023-03-02T00:01:09.363Z,91.55
2023-03-02T00:03:59.132Z,91.45
2023-03-02T00:06:45.851Z,91.30
2023-03-02T00:09:32.917Z,91.17
2023-03-02T00:12:19.430Z,91.54
2023-03-02T00:15:06.818Z,91.56
2023-03-02T00:17:53.661Z,91.62
2023-03-02T00:20:40.059Z,91.19
2023-03-02T00:23:27.653Z,91.45
2023-03-02T00:26:14.098Z,91.48
2023-03-02T00:29:00.848Z,91.14
2023-03-02T00:31:47.685Z,90.80
2023-03-02T00:34:34.143Z,90.58
2023-03-02T00:37:21.155Z,90.49
2023-03-02T00:40:12.009Z,90.26
2023-03-02T00:42:58.490Z,90.03
2023-03-02T00:45:45.472Z,90.00
2023-03-02T00:48:32.099Z,90.18
2023-03-02T00:51:19.436Z,90.23
2023-03-02T00:54:06.670Z,90.59
2023-03-02T00:56:53.192Z,90.41
2023-03-02T00:59:39.930Z,90.34
2023-03-02T01:02:27.235Z,90.32
2023-03-02T01:05:15.563Z,89.81
2023-03-02T01:08:01.907Z,89.90
2023-03-02T01:10:48.446Z,90.06
2023-03-02T01:13:36.404Z,90.07
2023-03-02T01:16:22.891Z,90.24
2023-03-02T01:19:09.652Z,90.04
2023-03-02T01:21:55.954Z,90.14
2023-03-02T01:24:42.765Z,90.36
2023-03-02T01:27:29.598Z,90.21
2023-03-02T01:30:17.370Z,90.41
2023-03-02T01:33:03.863Z,90.70
2023-03-02T01:35:50.469Z,90.76
2023-03-02T01:38:37.148Z,90.43
2023-03-02T01:41:23.930Z,90.80
2023-03-02T01:44:48.644Z,91.47
2023-03-02T01:47:38.767Z,92.07
2023-03-02T01:50:26.738Z,92.08
2023-03-02T01:53:15.845Z,92.58
2023-03-02T01:56:04.163Z,93.04
2023-03-02T01:58:56.471Z,93.14
2023-03-02T02:01:47.428Z,93.08
2023-03-02T02:04:37.928Z,93.27
2023-03-02T02:07:24.565Z,93.21
2023-03-02T02:10:12.302Z,93.14
2023-03-02T02:12:58.892Z,93.20
2023-03-02T02:15:45.369Z,93.01
2023-03-02T02:18:34.176Z,93.03
2023-03-02T02:21:22.752Z,92.85
2023-03-02T02:24:22.305Z,93.15
2023-03-02T02:27:10.656Z,93.18
2023-03-02T02:29:58.579Z,93.26
2023-03-02T02:32:48.572Z,92.91
2023-03-02T02:35:38.694Z,93.35
2023-03-02T02:38:25.801Z,93.28
2023-03-02T02:41:20.136Z,93.11
2023-03-02T02:44:07.120Z,93.48
2023-03-02T02:46:53.530Z,93.57
2023-03-02T02:49:41.914Z,93.54
2023-03-02T02:52:29.713Z,93.55
2023-03-02T02:55:21.488Z,93.32
2023-03-02T02:58:20.513Z,93.49
2023-03-02T03:01:07.529Z,93.29
2023-03-02T03:03:57.995Z,93.04
2023-03-02T03:07:13.610Z,92.86
2023-03-02T03:10:35.009Z,93.33
2023-03-02T03:13:21.584Z,93.64
2023-03-02T03:16:11.415Z,93.36
2023-03-02T03:19:05.578Z,93.25
2023-03-02T03:21:56.075Z,93.17
2023-03-02T03:24:44.467Z,93.06
2023-03-02T03:27:30.905Z,93.07
2023-03-02T03:30:18.236Z,92.70
2023-03-02T03:33:05.041Z,92.89
2023-03-02T03:35:51.624Z,93.22
2023-03-02T03:38:39.366Z,93.21
2023-03-02T03:41:26.589Z,93.03
2023-03-02T03:44:13.488Z,92.93
2023-03-02T03:47:00.642Z,93.19
2023-03-02T03:49:47.088Z,93.16
2023-03-02T03:52:33.909Z,93.15
2023-03-02T03:55:20.774Z,93.11
2023-03-02T03:58:07.607Z,93.11
2023-03-02T04:00:54.085Z,93.31
2023-03-02T04:03:40.704Z,93.20
2023-03-02T04:06:27.684Z,93.00
2023-03-02T04:09:15.570Z,92.95
2023-03-02T04:12:03.902Z,92.96
2023-03-02T04:14:50.413Z,92.91
2023-03-02T04:17:37.084Z,93.09
2023-03-02T04:20:27.567Z,92.77
2023-03-02T04:23:14.979Z,92.65
2023-03-02T04:26:05.124Z,92.89
2023-03-02T04:28:51.840Z,92.73
2023-03-02T04:31:39.190Z,92.69
2023-03-02T04:34:26.630Z,92.89
2023-03-02T04:37:13.471Z,92.60
2023-03-02T04:40:00.412Z,92.30
2023-03-02T04:42:47.424Z,92.34
2023-03-02T04:45:34.363Z,92.11
2023-03-02T04:48:22.504Z,92.03
2023-03-02T04:51:24.132Z,91.99
2023-03-02T04:54:21.718Z,91.78
2023-03-02T04:57:08.643Z,91.86
2023-03-02T04:59:54.955Z,92.01
2023-03-02T05:02:41.877Z,91.74
2023-03-02T05:05:29.613Z,91.61
2023-03-02T05:08:17.041Z,91.56
2023-03-02T05:11:04.489Z,91.47
2023-03-02T05:13:53.632Z,91.70
2023-03-02T05:16:41.745Z,91.53
2023-03-02T05:19:28.603Z,91.67
2023-03-02T05:22:15.335Z,91.93
2023-03-02T05:25:02.214Z,91.90
2023-03-02T05:27:49.533Z,91.91
2023-03-02T05:30:37.713Z,91.92
2023-03-02T05:33:25.463Z,92.18
2023-03-02T05:36:12.248Z,92.11
2023-03-02T05:38:58.828Z,92.07
2023-03-02T05:41:46.419Z,91.55
2023-03-02T05:44:33.185Z,91.27
2023-03-02T05:47:20.392Z,91.38
2023-03-02T05:50:07.602Z,91.42
2023-03-02T05:52:54.360Z,91.29
2023-03-02T05:55:42.019Z,91.31
2023-03-02T05:58:28.928Z,91.59
2023-03-02T06:01:15.799Z,91.38
2023-03-02T06:04:02.872Z,91.35
2023-03-02T06:06:49.581Z,91.82
2023-03-02T06:09:37.147Z,92.01
2023-03-02T06:12:24.373Z,92.38
2023-03-02T06:15:11.479Z,92.60
2023-03-02T06:17:58.172Z,92.37
2023-03-02T06:20:45.189Z,92.25
2023-03-02T06:23:31.572Z,92.13
2023-03-02T06:26:18.092Z,91.86
2023-03-02T06:29:05.683Z,91.63
2023-03-02T06:31:52.336Z,91.91
2023-03-02T06:34:38.844Z,92.07
2023-03-02T06:37:25.742Z,92.20
2023-03-02T06:40:14.098Z,92.06
2023-03-02T06:43:03.867Z,92.13
2023-03-02T06:45:51.122Z,92.01
2023-03-02T06:48:38.261Z,92.18
2023-03-02T06:51:24.667Z,92.30
2023-03-02T06:54:11.563Z,92.44
2023-03-02T06:56:58.332Z,92.26
2023-03-02T06:59:45.033Z,92.27
2023-03-02T07:02:31.897Z,92.46
2023-03-02T07:05:19.549Z,92.35
2023-03-02T07:08:05.951Z,92.42
2023-03-02T07:10:52.657Z,92.44
2023-03-02T07:13:40.338Z,92.46
2023-03-02T07:16:27.720Z,92.15
2023-03-02T07:19:20.648Z,92.15
2023-03-02T07:22:10.478Z,91.93
2023-03-02T07:24:57.268Z,91.98
2023-03-02T07:32:07.078Z,92.33
2023-03-02T07:34:54.314Z,92.64
2023-03-02T07:37:44.201Z,92.67
2023-03-02T07:40:30.629Z,92.56
2023-03-02T07:43:17.678Z,92.35
2023-03-02T07:46:05.079Z,92.43
2023-03-02T07:48:52.005Z,92.46
2023-03-02T07:51:39.184Z,92.38
2023-03-02T07:54:27.803Z,92.55
2023-03-02T07:57:54.431Z,92.60
2023-03-02T08:00:42.684Z,92.18
2023-03-02T08:03:30.148Z,92.01
2023-03-02T08:06:19.840Z,91.63
2023-03-02T08:09:06.313Z,91.69
2023-03-02T08:11:52.797Z,91.40
2023-03-02T08:16:06.798Z,90.94
2023-03-02T08:19:41.893Z,90.71
2023-03-02T08:33:43.149Z,89.73
2023-03-02T09:14:43.845Z,81.59
2023-03-02T09:17:42.737Z,81.71
2023-03-02T09:22:11.529Z,81.47
2023-03-02T09:50:23.396Z,77.10
2023-03-02T09:58:32.398Z,77.48
2023-03-02T10:01:28.691Z,77.33
2023-03-02T10:17:22.691Z,77.18
2023-03-02T11:00:32.043Z,80.55
2023-03-02T11:55:47.817Z,78.29
2023-03-02T12:23:24.291Z,74.41
2023-03-02T12:26:18.956Z,73.87
2023-03-02T12:29:10.658Z,73.83
2023-03-02T12:31:57.238Z,73.75
2023-03-02T12:34:51.290Z,73.22
2023-03-02T12:37:57.641Z,72.88
2023-03-02T12:52:00.641Z,72.57
2023-03-02T12:55:22.399Z,72.83
2023-03-02T12:58:17.914Z,72.91
2023-03-02T13:01:04.578Z,72.66
2023-03-02T13:10:55.063Z,72.54
2023-03-02T13:13:45.321Z,72.90
2023-03-02T13:16:36.893Z,72.64
2023-03-02T13:19:27.720Z,72.49
2023-03-02T13:22:15.116Z,71.92
2023-03-02T13:25:06.268Z,71.94
2023-03-02T13:28:07.995Z,72.07
2023-03-02T13:31:07.702Z,72.79
2023-03-02T13:33:57.221Z,73.18
2023-03-02T13:36:53.817Z,72.49
2023-03-02T13:41:19.428Z,72.39
2023-03-02T13:44:34.300Z,72.28
2023-03-02T13:47:35.996Z,72.33
2023-03-02T14:02:25.960Z,71.73
2023-03-02T15:11:05.685Z,70.50
2023-03-02T15:14:44.698Z,70.81
2023-03-02T15:17:29.932Z,71.55
2023-03-02T15:20:34.601Z,71.15
2023-03-02T15:24:33.693Z,71.53
2023-03-02T15:28:56.167Z,71.46
2023-03-02T15:37:22.012Z,72.09
2023-03-02T15:40:08.147Z,72.38
2023-03-02T15:42:55.916Z,72.09
2023-03-02T15:45:45.879Z,71.80
2023-03-02T15:48:31.038Z,72.08
2023-03-02T15:52:36.529Z,72.42
2023-03-02T15:55:22.106Z,72.90
2023-03-02T15:58:10.956Z,73.04
2023-03-02T16:00:56.417Z,73.49
2023-03-02T16:04:02.106Z,73.54
2023-03-02T16:07:47.645Z,74.21
2023-03-02T16:11:10.368Z,74.54
2023-03-02T16:14:07.261Z,75.11
2023-03-02T16:17:19.531Z,75.74
2023-03-02T16:20:12.292Z,76.18
2023-03-02T16:23:04.054Z,76.59
2023-03-02T16:25:52.834Z,76.85
2023-03-02T16:28:39.774Z,77.46
2023-03-02T16:31:28.533Z,77.84
2023-03-02T16:34:37.265Z,78.28
2023-03-02T16:37:24.399Z,78.56
2023-03-02T16:40:17.124Z,79.18
2023-03-02T16:43:03.626Z,79.58
2023-03-02T16:45:51.799Z,79.85
2023-03-02T16:48:38.620Z,80.20
2023-03-02T16:51:38.622Z,80.50
2023-03-02T16:55:52.785Z,81.19
2023-03-02T17:13:19.840Z,82.92
2023-03-02T17:16:05.823Z,83.24
2023-03-02T17:24:57.658Z,84.16
2023-03-02T17:27:56.688Z,84.75
2023-03-02T17:43:04.279Z,85.45
2023-03-02T17:47:14.636Z,85.95
2023-03-02T17:50:11.318Z,86.26
2023-03-02T17:54:07.551Z,86.98
2023-03-02T17:58:05.286Z,87.34
2023-03-02T18:02:10.422Z,87.98
2023-03-02T18:05:41.536Z,88.04
2023-03-02T18:08:28.028Z,88.26
2023-03-02T18:11:17.566Z,88.59
2023-03-02T18:14:04.399Z,88.96
2023-03-02T18:16:51.213Z,88.89
2023-03-02T18:19:38.158Z,88.54
2023-03-02T18:22:25.409Z,88.40
2023-03-02T18:25:13.056Z,88.26
2023-03-02T18:29:52.482Z,88.43
2023-03-02T18:33:26.945Z,88.74
2023-03-02T18:37:35.121Z,89.16
2023-03-02T18:41:05.273Z,89.59
2023-03-02T18:45:18.212Z,89.98
2023-03-02T18:48:54.740Z,90.03
2023-03-02T18:51:45.591Z,90.51
2023-03-02T18:54:32.638Z,90.32
2023-03-02T18:57:19.733Z,90.56
2023-03-02T19:00:10.017Z,90.70
2023-03-02T19:03:01.741Z,91.41
2023-03-02T19:05:49.514Z,91.88
2023-03-02T19:08:37.204Z,91.92
2023-03-02T19:11:24.121Z,92.18
2023-03-02T19:14:11.217Z,91.87
2023-03-02T19:16:58.381Z,91.70
2023-03-02T19:19:49.001Z,91.63
2023-03-02T19:22:35.447Z,91.43
2023-03-02T19:25:22.655Z,91.20
2023-03-02T19:28:09.821Z,90.91
2023-03-02T19:30:58.617Z,91.01
2023-03-02T19:33:48.736Z,90.83
2023-03-02T19:36:37.614Z,90.70
2023-03-02T19:39:24.248Z,90.76
2023-03-02T19:42:11.486Z,90.78
2023-03-02T19:44:58.211Z,90.50
2023-03-02T19:47:45.979Z,90.99
2023-03-02T19:50:45.927Z,90.99
2023-03-02T19:53:43.080Z,90.99
2023-03-02T20:00:49.734Z,91.20
2023-03-02T20:09:41.435Z,92.10
2023-03-02T20:17:14.057Z,92.83
2023-03-02T20:20:07.326Z,92.98
2023-03-02T20:23:25.452Z,92.93
2023-03-02T20:26:29.543Z,92.62
2023-03-02T20:29:28.394Z,92.46
2023-03-02T20:32:16.358Z,92.37
2023-03-02T20:35:08.132Z,92.62
2023-03-02T20:38:00.998Z,92.76
2023-03-02T20:41:11.075Z,92.84
2023-03-02T20:43:56.685Z,92.72
2023-03-02T20:47:19.694Z,92.77
2023-03-02T20:54:25.301Z,92.95
2023-03-02T20:56:49.715Z,92.86
2023-03-02T20:57:17.536Z,92.99
2023-03-02T21:00:39.476Z,93.38
2023-03-02T21:03:31.723Z,93.19
2023-03-02T21:06:25.094Z,93.08
2023-03-02T21:09:14.511Z,93.14
2023-03-02T21:12:01.944Z,93.15
2023-03-02T21:14:48.909Z,93.18
2023-03-02T21:17:35.962Z,93.05
2023-03-02T21:20:26.373Z,93.25
2023-03-02T21:26:35.921Z,93.47
2023-03-02T21:29:26.137Z,93.53
2023-03-02T21:32:11.256Z,93.66
2023-03-02T21:34:56.357Z,93.60
2023-03-02T21:37:45.047Z,93.53
2023-03-02T21:40:37.047Z,93.43
2023-03-02T21:43:37.116Z,93.94
2023-03-02T21:46:24.439Z,94.02
2023-03-02T21:49:15.660Z,94.16
2023-03-02T21:52:01.232Z,94.28
2023-03-02T21:54:56.259Z,94.26
2023-03-02T21:58:09.437Z,94.30
2023-03-02T22:00:55.560Z,94.88
2023-03-02T22:03:42.015Z,94.98
2023-03-02T22:06:32.280Z,95.20
2023-03-02T22:09:23.563Z,95.44
2023-03-02T22:12:13.477Z,95.57
2023-03-02T22:15:05.643Z,95.39
2023-03-02T22:17:52.472Z,95.70
2023-03-02T22:20:50.886Z,95.67
2023-03-02T22:23:37.899Z,96.00
2023-03-02T22:26:25.484Z,96.09
2023-03-02T22:29:34.113Z,96.04
2023-03-02T22:32:34.111Z,95.67
2023-03-02T22:35:22.646Z,95.49
2023-03-02T22:38:16.190Z,95.14
2023-03-02T22:41:02.407Z,94.86
2023-03-02T22:43:49.018Z,94.63
2023-03-02T22:46:34.398Z,94.59
2023-03-02T22:49:22.784Z,94.32
2023-03-02T22:52:19.651Z,94.63
2023-03-02T22:55:30.813Z,95.17
2023-03-02T22:58:22.226Z,95.10
2023-03-02T23:01:25.727Z,95.21
2023-03-02T23:04:25.860Z,95.05
2023-03-02T23:07:38.204Z,94.80
2023-03-02T23:10:23.859Z,95.04
2023-03-02T23:13:13.636Z,94.66
2023-03-02T23:16:02.171Z,94.85
2023-03-02T23:18:48.426Z,94.57
2023-03-02T23:21:47.739Z,94.80
2023-03-02T23:24:33.783Z,95.20
2023-03-02T23:27:19.229Z,95.27
2023-03-02T23:30:05.464Z,95.95
2023-03-02T23:34:40.292Z,96.73
2023-03-02T23:37:28.657Z,97.12
2023-03-02T23:40:17.722Z,96.95
2023-03-02T23:43:04.500Z,96.59
2023-03-02T23:45:51.452Z,96.47
2023-03-02T23:48:38.340Z,95.99
2023-03-02T23:51:27.271Z,95.60
2023-03-02T23:54:14.755Z,95.49
2023-03-02T23:57:01.669Z,95.27
2023-03-02T23:59:48.173Z,95.23
